Time;durP1;ratioP1;P1;durP2;ratioP2;P2;SDS_P1;SDS_P2;PMS_P1;PMS_P2;Temp;Humidity;BMP_temperature;BMP_pressure;BME280_temperature;BME280_humidity;BME280_pressure;Samples;Min_cycle;Max_cycle;Signal;HPM_P1;HPM_P2
2020/04/30 00:09:12;;;;;;;1.4;1.2;;;;;;;;;;;;;
2020/04/30 00:11:41;;;;;;;1.4;1.1;;;;;;;;;;;;;
2020/04/30 00:19:17;;;;;;;2.2;1.2;;;;;;;;;;;;;
2020/04/30 00:23:35;;;;;;;1.8;1.2;;;;;;;;;;;;;
2020/04/30 00:26:09;;;;;;;2.2;1;;;;;;;;;;;;;
2020/04/30 00:28:37;;;;;;;3.6;1.2;;;;;;;;;;;;;
2020/04/30 00:30:46;;;;;;;2;1;;;;;;;;;;;;;
2020/04/30 00:33:21;;;;;;;1.7;1.2;;;;;;;;;;;;;
2020/04/30 00:38:49;;;;;;;2.4;1.2;;;;;;;;;;;;;
2020/04/30 00:40:32;;;;;;;1.7;1.3;;;;;;;;;;;;;
2020/04/30 00:43:04;;;;;;;1.9;1.3;;;;;;;;;;;;;
2020/04/30 00:47:45;;;;;;;2.4;1.3;;;;;;;;;;;;;
2020/04/30 00:50:33;;;;;;;1.8;1.2;;;;;;;;;;;;;
2020/04/30 00:52:34;;;;;;;3.4;1.3;;;;;;;;;;;;;
2020/04/30 00:55:08;;;;;;;2.4;1.4;;;;;;;;;;;;;
2020/04/30 00:57:32;;;;;;;1.8;1.3;;;;;;;;;;;;;
2020/04/30 00:59:59;;;;;;;1.1;0.9;;;;;;;;;;;;;
2020/04/30 01:02:10;;;;;;;1.6;1.1;;;;;;;;;;;;;
2020/04/30 01:04:33;;;;;;;1.3;1;;;;;;;;;;;;;
2020/04/30 01:06:59;;;;;;;1.9;1.1;;;;;;;;;;;;;
2020/04/30 01:09:25;;;;;;;2.6;1.1;;;;;;;;;;;;;
2020/04/30 01:11:50;;;;;;;2.7;1.1;;;;;;;;;;;;;
2020/04/30 01:14:21;;;;;;;1.6;1.4;;;;;;;;;;;;;
2020/04/30 01:16:46;;;;;;;1.8;1.3;;;;;;;;;;;;;
2020/04/30 01:19:12;;;;;;;1.4;1.3;;;;;;;;;;;;;
2020/04/30 01:21:37;;;;;;;1.4;1.1;;;;;;;;;;;;;
2020/04/30 01:24:02;;;;;;;2.3;1.4;;;;;;;;;;;;;
2020/04/30 01:26:27;;;;;;;2;1.4;;;;;;;;;;;;;
2020/04/30 01:28:52;;;;;;;2.4;1.3;;;;;;;;;;;;;
2020/04/30 01:31:18;;;;;;;2.4;1.3;;;;;;;;;;;;;
2020/04/30 01:33:43;;;;;;;2.1;1.4;;;;;;;;;;;;;
2020/04/30 01:36:08;;;;;;;2;1.5;;;;;;;;;;;;;
2020/04/30 01:38:33;;;;;;;2.3;1.4;;;;;;;;;;;;;
2020/04/30 01:40:58;;;;;;;3.3;1.4;;;;;;;;;;;;;
2020/04/30 01:43:24;;;;;;;3.6;1.7;;;;;;;;;;;;;
2020/04/30 01:45:49;;;;;;;1.8;1.5;;;;;;;;;;;;;
2020/04/30 01:48:14;;;;;;;3.2;2.1;;;;;;;;;;;;;
2020/04/30 01:50:39;;;;;;;4;3;;;;;;;;;;;;;
2020/04/30 01:53:04;;;;;;;3.7;2.4;;;;;;;;;;;;;
2020/04/30 01:55:30;;;;;;;2.7;1.6;;;;;;;;;;;;;
2020/04/30 01:57:55;;;;;;;2.1;1.6;;;;;;;;;;;;;
2020/04/30 02:00:21;;;;;;;2.8;1.6;;;;;;;;;;;;;
2020/04/30 02:02:47;;;;;;;3.5;2.2;;;;;;;;;;;;;
2020/04/30 02:05:12;;;;;;;7.9;2.7;;;;;;;;;;;;;
2020/04/30 02:07:37;;;;;;;2.8;1.6;;;;;;;;;;;;;
2020/04/30 02:10:02;;;;;;;3.3;1.8;;;;;;;;;;;;;
2020/04/30 02:12:28;;;;;;;3.1;1.4;;;;;;;;;;;;;
2020/04/30 02:14:53;;;;;;;3.6;2;;;;;;;;;;;;;
2020/04/30 02:17:18;;;;;;;2.2;1.9;;;;;;;;;;;;;
2020/04/30 02:19:43;;;;;;;2.6;1.7;;;;;;;;;;;;;
2020/04/30 02:22:30;;;;;;;4.6;2.2;;;;;;;;;;;;;
2020/04/30 02:24:41;;;;;;;2.8;1.5;;;;;;;;;;;;;
2020/04/30 02:27:10;;;;;;;1.7;1.2;;;;;;;;;;;;;
2020/04/30 02:29:52;;;;;;;3.3;1.6;;;;;;;;;;;;;
2020/04/30 02:32:05;;;;;;;4.2;1.2;;;;;;;;;;;;;
2020/04/30 02:34:59;;;;;;;2.6;1.1;;;;;;;;;;;;;
2020/04/30 02:39:19;;;;;;;2.6;1.2;;;;;;;;;;;;;
2020/04/30 02:41:35;;;;;;;2.2;1;;;;;;;;;;;;;
2020/04/30 02:44:03;;;;;;;2.1;1.3;;;;;;;;;;;;;
2020/04/30 02:46:36;;;;;;;3.6;2;;;;;;;;;;;;;
2020/04/30 02:48:58;;;;;;;3.4;2.1;;;;;;;;;;;;;
2020/04/30 02:53:42;;;;;;;4.2;1.9;;;;;;;;;;;;;
2020/04/30 02:58:41;;;;;;;3.1;2.3;;;;;;;;;;;;;
2020/04/30 03:03:30;;;;;;;2.4;1.6;;;;;;;;;;;;;
2020/04/30 03:05:50;;;;;;;4.8;1.7;;;;;;;;;;;;;
2020/04/30 03:08:36;;;;;;;4.3;1.8;;;;;;;;;;;;;
2020/04/30 03:10:53;;;;;;;1.9;1.5;;;;;;;;;;;;;
2020/04/30 03:13:26;;;;;;;12;2.4;;;;;;;;;;;;;
2020/04/30 03:18:07;;;;;;;2.7;1.3;;;;;;;;;;;;;
2020/04/30 03:20:32;;;;;;;2.1;1.4;;;;;;;;;;;;;
2020/04/30 03:25:21;;;;;;;2;1.4;;;;;;;;;;;;;
2020/04/30 03:27:47;;;;;;;4.7;1.5;;;;;;;;;;;;;
2020/04/30 03:30:04;;;;;;;4.9;1.8;;;;;;;;;;;;;
2020/04/30 03:41:26;;;;;;;2.8;1.4;;;;;;;;;;;;;
2020/04/30 03:42:10;;;;;;;2.3;1.4;;;;;;;;;;;;;
2020/04/30 03:47:41;;;;;;;3.1;1.5;;;;;;;;;;;;;
2020/04/30 03:49:41;;;;;;;2.8;1.6;;;;;;;;;;;;;
2020/04/30 03:51:47;;;;;;;5.1;1.7;;;;;;;;;;;;;
2020/04/30 03:54:31;;;;;;;3.3;2.1;;;;;;;;;;;;;
2020/04/30 03:56:52;;;;;;;3.7;2.2;;;;;;;;;;;;;
2020/04/30 03:59:09;;;;;;;4.9;2.4;;;;;;;;;;;;;
2020/04/30 04:02:49;;;;;;;5;2.6;;;;;;;6.22;89.65039;931.4732;;;;
2020/04/30 04:07:45;;;;;;;3.1;1.7;;;;;;;6.25;89.31738;931.5353;;;;
2020/04/30 04:10:08;;;;;;;2.7;1.6;;;;;;;6.19;89.47363;931.5245;;;;
2020/04/30 04:12:15;;;;;;;4;1.7;;;;;;;6.13;89.94629;931.5569;;;;
2020/04/30 04:17:22;;;;;;;3.8;1.9;;;;;;;6.3;89.47363;931.5137;;;;
2020/04/30 04:19:43;;;;;;;2;1.7;;;;;;;6.28;89.60547;931.5703;;;;
2020/04/30 04:22:00;;;;;;;6.7;1.6;;;;;;;6.31;89.73535;931.6309;;;;
2020/04/30 04:30:56;;;;;;;6.9;1.9;;;;;;;6.34;89.85449;931.6313;;;;
2020/04/30 04:34:35;;;;;;;5;1.8;;;;;;;6.58;88.64063;931.4832;;;;
2020/04/30 04:37:30;;;;;;;4.2;1.8;;;;;;;6.56;88.57813;931.6006;;;;
2020/04/30 04:43:43;;;;;;;3.9;1.5;;;;;;;6.78;88.4082;931.6719;;;;
2020/04/30 04:46:09;;;;;;;2.4;1.5;;;;;;;6.62;88.80664;931.6145;;;;
2020/04/30 04:48:35;;;;;;;2.9;1.5;;;;;;;6.8;88.88672;931.6215;;;;
2020/04/30 04:53:23;;;;;;;2.6;1.7;;;;;;;6.79;88.98926;931.6871;;;;
2020/04/30 05:03:14;;;;;;;6.6;2.3;;;;;;;7.2;86.72754;931.5793;;;;
2020/04/30 05:05:39;;;;;;;6;1.9;;;;;;;7.48;86.08008;931.552;;;;
2020/04/30 05:08:03;;;;;;;7;2.4;;;;;;;7.63;85.30566;931.5158;;;;
2020/04/30 05:10:31;;;;;;;6.9;1.7;;;;;;;7.68;85.97363;931.5511;;;;
2020/04/30 05:12:51;;;;;;;10;1.8;;;;;;;7.96;85.38281;931.549;;;;
2020/04/30 05:15:11;;;;;;;4.3;1.5;;;;;;;8.32;83.1377;931.4428;;;;
2020/04/30 05:27:24;;;;;;;9.1;2;;;;;;;8.91;80.79199;931.3416;;;;
2020/04/30 05:29:54;;;;;;;5.6;1.8;;;;;;;9.04;80.85352;931.3265;;;;
2020/04/30 05:32:23;;;;;;;2.1;1.2;;;;;;;9.03;80.98828;931.2709;;;;
2020/04/30 05:34:53;;;;;;;4.2;1.2;;;;;;;9.36;80.28711;931.285;;;;
2020/04/30 05:39:22;;;;;;;5.2;1.4;;;;;;;11.15;72.33008;931.2297;;;;
2020/04/30 05:41:42;;;;;;;4.1;1.3;;;;;;;11.36;72.02344;931.2347;;;;
2020/04/30 05:44:08;;;;;;;3.9;1.2;;;;;;;11.08;72.58105;931.2125;;;;
2020/04/30 05:46:33;;;;;;;5;1.2;;;;;;;11.43;71.53125;931.221;;;;
2020/04/30 05:49:06;;;;;;;8.2;1.6;;;;;;;12.3;69.81641;931.1741;;;;
2020/04/30 05:51:40;;;;;;;4.9;0.9;;;;;;;12.77;65.35938;931.1749;;;;
2020/04/30 05:53:58;;;;;;;2.8;1;;;;;;;12.84;66.24316;931.1688;;;;
2020/04/30 05:56:23;;;;;;;2.6;0.9;;;;;;;13.33;63.78906;931.1841;;;;
2020/04/30 06:01:28;;;;;;;4.6;1.3;;;;;;;14.12;61.79785;931.2164;;;;
2020/04/30 06:11:03;;;;;;;3;1.1;;;;;;;15.01;59.27051;931.0854;;;;
2020/04/30 06:18:31;;;;;;;2.9;1.1;;;;;;;14.34;62.50781;931.037;;;;
2020/04/30 06:20:42;;;;;;;4.1;1.3;;;;;;;13.92;62.94336;930.9655;;;;
2020/04/30 06:22:57;;;;;;;4.4;1.4;;;;;;;14.6;59.98828;930.8777;;;;
2020/04/30 06:25:18;;;;;;;3.4;1;;;;;;;14.16;59.14258;930.9036;;;;
2020/04/30 06:27:44;;;;;;;1.9;1.1;;;;;;;14.26;58.57031;930.9199;;;;
2020/04/30 06:30:09;;;;;;;1.8;1;;;;;;;14.88;59.09082;930.8524;;;;
2020/04/30 06:32:34;;;;;;;2.9;1.2;;;;;;;15.81;55.3916;930.7976;;;;
2020/04/30 06:34:59;;;;;;;2.1;1;;;;;;;17.09;52.05371;930.7838;;;;
2020/04/30 06:37:24;;;;;;;2.8;1;;;;;;;16.03;52.2168;930.7697;;;;
2020/04/30 06:39:49;;;;;;;2.6;1.1;;;;;;;15.74;54.56348;930.7869;;;;
2020/04/30 06:42:15;;;;;;;4.1;1.1;;;;;;;16.5;55.11914;930.7364;;;;
2020/04/30 06:44:42;;;;;;;4.1;1.1;;;;;;;17.03;51.72168;930.7516;;;;
2020/04/30 06:47:08;;;;;;;2.4;1;;;;;;;17.09;49.75879;930.7822;;;;
2020/04/30 06:49:34;;;;;;;1.1;0.9;;;;;;;16.29;51.92383;930.6922;;;;
2020/04/30 06:52:00;;;;;;;3.8;1.1;;;;;;;15.77;53.15625;930.7076;;;;
2020/04/30 06:54:25;;;;;;;1.6;0.9;;;;;;;15.23;52.99707;930.6641;;;;
2020/04/30 06:56:52;;;;;;;7.1;1.3;;;;;;;14.69;54.83496;930.6945;;;;
2020/04/30 06:59:17;;;;;;;2.6;1.1;;;;;;;14.53;56.29102;930.6091;;;;
2020/04/30 07:01:46;;;;;;;4.8;1;;;;;;;14.6;56.03516;930.5836;;;;
2020/04/30 07:04:08;;;;;;;5.9;1.2;;;;;;;14.71;56.24512;930.5402;;;;
2020/04/30 07:06:33;;;;;;;3;1;;;;;;;16.09;52.1084;930.5023;;;;
2020/04/30 07:08:59;;;;;;;2.5;0.9;;;;;;;17.95;49.7627;930.4958;;;;
2020/04/30 07:11:25;;;;;;;1.5;0.7;;;;;;;18.59;46.38086;930.4202;;;;
2020/04/30 07:13:50;;;;;;;1;0.7;;;;;;;18.21;46.99219;930.3855;;;;
2020/04/30 07:16:16;;;;;;;0.9;0.6;;;;;;;18.25;44.64941;930.3677;;;;
2020/04/30 07:18:41;;;;;;;2;0.6;;;;;;;18.13;45.87988;930.3488;;;;
2020/04/30 07:21:07;;;;;;;3;0.6;;;;;;;19.63;42.62012;930.1896;;;;
2020/04/30 07:23:34;;;;;;;1.2;0.6;;;;;;;19.45;42.5332;930.2225;;;;
2020/04/30 07:25:58;;;;;;;3.4;1.1;;;;;;;22.32;38.9043;930.2061;;;;
2020/04/30 07:31:14;;;;;;;2.2;0.6;;;;;;;22.44;38.98535;930.1071;;;;
2020/04/30 07:35:46;;;;;;;1.7;0.7;;;;;;;23.49;35.74902;930.0081;;;;
2020/04/30 07:43:05;;;;;;;2.5;0.9;;;;;;;21.61;40.46973;929.9286;;;;
2020/04/30 07:45:50;;;;;;;5;1;;;;;;;20.49;43.7666;929.9174;;;;
2020/04/30 07:48:02;;;;;;;2.4;0.7;;;;;;;19.01;45.9248;929.8563;;;;
2020/04/30 07:50:34;;;;;;;2.1;0.8;;;;;;;18.6;46.87012;929.8557;;;;
2020/04/30 07:52:58;;;;;;;2.6;1;;;;;;;18.11;48.58398;929.8837;;;;
2020/04/30 07:57:43;;;;;;;2.8;0.7;;;;;;;17.31;50.00488;929.8708;;;;
2020/04/30 08:02:41;;;;;;;4.2;1.7;;;;;;;17.43;48.69434;929.8951;;;;
2020/04/30 08:07:22;;;;;;;1.8;1;;;;;;;17.35;47.22461;929.8192;;;;
2020/04/30 08:09:53;;;;;;;3.4;1.3;;;;;;;17.39;51.06836;929.7994;;;;
2020/04/30 08:17:04;;;;;;;19;12.9;;;;;;;17.47;44.38379;929.7892;;;;
2020/04/30 08:20:39;;;;;;;25.6;15;;;;;;;16.95;47.02051;929.8422;;;;
2020/04/30 08:21:53;;;;;;;7.5;3.1;;;;;;;16.65;46.33887;929.9072;;;;
2020/04/30 08:24:25;;;;;;;2.2;0.8;;;;;;;16.48;46.68066;929.95;;;;
2020/04/30 08:28:08;;;;;;;7.1;2;;;;;;;16.6;49.40137;929.9429;;;;
2020/04/30 08:36:31;;;;;;;70.2;36.2;;;;;;;16.42;51.33789;929.8198;;;;
2020/04/30 08:41:26;;;;;;;13.5;6.1;;;;;;;16.49;49.23926;929.9224;;;;
2020/04/30 08:43:45;;;;;;;303.2;184.2;;;;;;;16.5;47.78125;929.9785;;;;
2020/04/30 08:46:36;;;;;;;15.6;9.5;;;;;;;16.64;49.12793;929.959;;;;
2020/04/30 08:51:01;;;;;;;6.6;3.6;;;;;;;16.74;52.08105;929.9822;;;;
2020/04/30 08:56:07;;;;;;;6.2;1.2;;;;;;;16.04;49.40723;929.9697;;;;
2020/04/30 08:58:15;;;;;;;59.7;42.6;;;;;;;16.05;49.0625;930.0553;;;;
2020/04/30 09:03:08;;;;;;;25.9;18.5;;;;;;;16.01;53.12695;929.9894;;;;
2020/04/30 09:05:35;;;;;;;4.9;3.1;;;;;;;16.17;54.30371;930.0283;;;;
2020/04/30 09:08:37;;;;;;;3;1.1;;;;;;;16.31;54.32129;929.9581;;;;
2020/04/30 09:13:06;;;;;;;4.8;0.8;;;;;;;16.37;51.69043;929.8884;;;;
2020/04/30 09:15:16;;;;;;;2.6;0.9;;;;;;;16.45;50.75098;929.9331;;;;
2020/04/30 09:22:53;;;;;;;2.3;0.9;;;;;;;17.24;50.41211;929.9416;;;;
2020/04/30 09:25:05;;;;;;;2.4;0.9;;;;;;;17.53;47.04688;929.8566;;;;
2020/04/30 09:27:33;;;;;;;5;0.9;;;;;;;17.63;50.85254;929.8787;;;;
2020/04/30 09:30:40;;;;;;;1.2;0.7;;;;;;;18.07;48.02344;929.9453;;;;
2020/04/30 09:37:03;;;;;;;4.7;1.1;;;;;;;21.27;43.87891;929.8994;;;;
2020/04/30 09:39:37;;;;;;;1.7;0.8;;;;;;;21.35;40.76074;929.8814;;;;
2020/04/30 09:41:57;;;;;;;2.4;0.7;;;;;;;21.86;37.36328;929.8707;;;;
2020/04/30 09:45:12;;;;;;;1.3;0.7;;;;;;;21.67;39.91309;929.8323;;;;
2020/04/30 09:52:13;;;;;;;1.8;0.8;;;;;;;21.07;39.64941;929.7643;;;;
2020/04/30 09:54:09;;;;;;;1.2;0.6;;;;;;;20.67;39.40234;929.7184;;;;
2020/04/30 09:58:55;;;;;;;3;0.9;;;;;;;21.65;40.0166;929.6728;;;;
2020/04/30 10:01:11;;;;;;;4.1;1.1;;;;;;;22.26;37.28027;929.5628;;;;
2020/04/30 10:03:37;;;;;;;11.4;4.1;;;;;;;23.04;34.82031;929.4648;;;;
2020/04/30 10:06:02;;;;;;;25.6;10.6;;;;;;;23.77;32.83008;929.454;;;;
2020/04/30 10:08:29;;;;;;;19.9;8.3;;;;;;;24.16;34.86035;929.4565;;;;
2020/04/30 10:10:54;;;;;;;8;2.8;;;;;;;23.39;36.25879;929.4458;;;;
2020/04/30 10:13:21;;;;;;;5.8;1.7;;;;;;;22.91;35.72656;929.5134;;;;
2020/04/30 10:15:46;;;;;;;1;0.6;;;;;;;22.94;36.72656;929.4722;;;;
2020/04/30 10:18:11;;;;;;;2.3;0.7;;;;;;;22.67;36.28223;929.4387;;;;
2020/04/30 10:20:36;;;;;;;1.5;0.6;;;;;;;22.11;36.83398;929.4601;;;;
2020/04/30 10:23:02;;;;;;;1;0.5;;;;;;;21.86;36.37988;929.3892;;;;
2020/04/30 10:25:28;;;;;;;1.3;0.7;;;;;;;21.32;39.88184;929.3195;;;;
2020/04/30 10:27:53;;;;;;;1.5;0.5;;;;;;;21.02;37.2002;929.2986;;;;
2020/04/30 10:30:26;;;;;;;2.6;0.5;;;;;;;20.52;38.57129;929.2271;;;;
2020/04/30 10:32:51;;;;;;;1.8;0.6;;;;;;;20.25;38.44141;929.1905;;;;
2020/04/30 10:35:16;;;;;;;3;0.6;;;;;;;19.78;38.80957;929.1683;;;;
2020/04/30 10:37:42;;;;;;;5.4;0.6;;;;;;;19.65;40.0459;929.1905;;;;
2020/04/30 10:40:07;;;;;;;3.9;0.5;;;;;;;19.54;39.88477;929.1308;;;;
2020/04/30 10:42:32;;;;;;;2.5;0.4;;;;;;;19.65;39.08984;929.1713;;;;
2020/04/30 10:44:58;;;;;;;2.6;0.5;;;;;;;19.7;40.71484;929.132;;;;
2020/04/30 10:47:23;;;;;;;2.8;0.5;;;;;;;19.95;40.50488;929.2354;;;;
2020/04/30 10:49:50;;;;;;;3.8;0.5;;;;;;;19.95;39.8623;929.2395;;;;
2020/04/30 10:52:15;;;;;;;1.9;0.4;;;;;;;20.14;38.96875;929.2593;;;;
2020/04/30 10:54:41;;;;;;;0.7;0.3;;;;;;;20.32;39.70996;929.2261;;;;
2020/04/30 10:57:07;;;;;;;1.2;0.5;;;;;;;20.42;38.53906;929.2886;;;;
2020/04/30 10:59:32;;;;;;;2.2;0.5;;;;;;;20.61;37.3877;929.2424;;;;
2020/04/30 11:01:59;;;;;;;2.1;0.5;;;;;;;20.75;37.42188;929.2107;;;;
2020/04/30 11:04:24;;;;;;;1.4;0.5;;;;;;;20.68;39.14551;929.1332;;;;
2020/04/30 11:06:50;;;;;;;1.5;0.6;;;;;;;20.51;38.44238;929.2307;;;;
2020/04/30 11:09:29;;;;;;;1.3;0.3;;;;;;;20.36;39.36328;929.2428;;;;
2020/04/30 11:11:55;;;;;;;1.3;0.6;;;;;;;20.21;39.77051;929.2346;;;;
2020/04/30 11:14:20;;;;;;;1.2;0.6;;;;;;;20.04;40.37207;929.219;;;;
2020/04/30 11:16:46;;;;;;;2.2;0.5;;;;;;;20.08;40.40039;929.2439;;;;
2020/04/30 11:19:11;;;;;;;1.2;0.6;;;;;;;20.11;42.2002;929.22;;;;
2020/04/30 11:21:38;;;;;;;1.9;0.5;;;;;;;20.24;41.36035;929.2263;;;;
2020/04/30 11:24:03;;;;;;;1.9;0.5;;;;;;;20.28;41.01465;929.2269;;;;
2020/04/30 11:26:35;;;;;;;2;0.6;;;;;;;19.77;42.10938;929.2269;;;;
2020/04/30 11:29:15;;;;;;;1.8;0.5;;;;;;;20.17;41.84375;929.2539;;;;
2020/04/30 11:31:25;;;;;;;1.5;0.6;;;;;;;20.2;41.84668;929.1995;;;;
2020/04/30 11:36:19;;;;;;;2;0.6;;;;;;;20.11;42.83008;929.1597;;;;
2020/04/30 11:38:59;;;;;;;1.1;0.5;;;;;;;19.94;42.58105;929.0352;;;;
2020/04/30 11:41:09;;;;;;;1.4;0.7;;;;;;;19.9;43.89551;929.0974;;;;
2020/04/30 11:43:38;;;;;;;2.4;0.6;;;;;;;19.74;42.43359;929.0075;;;;
2020/04/30 11:45:56;;;;;;;1.6;0.6;;;;;;;19.74;43.61133;929.0592;;;;
2020/04/30 11:53:24;;;;;;;0.7;0.5;;;;;;;19.84;43.96973;928.8102;;;;
2020/04/30 11:55:44;;;;;;;1.8;0.7;;;;;;;19.56;43.94238;928.878;;;;
2020/04/30 11:58:21;;;;;;;2.8;0.5;;;;;;;19.5;46.05762;928.8737;;;;
2020/04/30 12:02:48;;;;;;;3.2;0.6;;;;;;;19.72;44.22656;928.8043;;;;
2020/04/30 12:05:15;;;;;;;2.6;0.6;;;;;;;19.75;44.07813;928.8254;;;;
2020/04/30 12:07:40;;;;;;;1.4;0.7;;;;;;;19.82;44.12012;928.7194;;;;
2020/04/30 12:10:11;;;;;;;6.6;0.9;;;;;;;19.88;44.61621;928.6459;;;;
2020/04/30 12:12:36;;;;;;;2.3;0.9;;;;;;;20.09;45.04492;928.6658;;;;
2020/04/30 12:15:01;;;;;;;1.4;0.8;;;;;;;19.95;44.79785;928.6116;;;;
2020/04/30 12:17:26;;;;;;;2.9;0.5;;;;;;;20.04;43.43066;928.6313;;;;
2020/04/30 12:19:52;;;;;;;1.2;0.5;;;;;;;20.2;43.54004;928.6431;;;;
2020/04/30 12:22:17;;;;;;;1.4;0.6;;;;;;;20.45;43.43555;928.5694;;;;
2020/04/30 12:24:42;;;;;;;1.2;0.7;;;;;;;20.49;44.37402;928.663;;;;
2020/04/30 12:27:09;;;;;;;0.6;0.4;;;;;;;20.5;43.16016;928.6584;;;;
2020/04/30 12:29:34;;;;;;;1.3;0.6;;;;;;;20.54;41.86816;928.5644;;;;
2020/04/30 12:32:01;;;;;;;1.5;0.6;;;;;;;20.34;42.71191;928.5289;;;;
2020/04/30 12:34:26;;;;;;;1.4;0.6;;;;;;;19.65;43.50879;928.5074;;;;
2020/04/30 12:36:52;;;;;;;1.1;0.6;;;;;;;19.37;44.2373;928.5737;;;;
2020/04/30 12:41:27;;;;;;;1.3;0.5;;;;;;;19.42;44.91895;928.5787;;;;
2020/04/30 12:43:52;;;;;;;1.7;0.5;;;;;;;19.35;44.99316;928.5427;;;;
2020/04/30 12:46:17;;;;;;;1.5;0.5;;;;;;;19.05;46.15039;928.5761;;;;
2020/04/30 12:48:42;;;;;;;2.4;0.6;;;;;;;19.01;45.33105;928.5072;;;;
2020/04/30 12:51:07;;;;;;;2;0.7;;;;;;;18.93;47.2793;928.4802;;;;
2020/04/30 12:53:32;;;;;;;1;0.5;;;;;;;18.77;46.78418;928.5773;;;;
2020/04/30 12:55:58;;;;;;;3.8;0.6;;;;;;;18.62;47.0127;928.5672;;;;
2020/04/30 12:58:23;;;;;;;1.3;0.6;;;;;;;18.24;48.85449;928.541;;;;
2020/04/30 13:00:48;;;;;;;2.6;0.5;;;;;;;17.98;48.73242;928.5223;;;;
2020/04/30 13:03:13;;;;;;;1.6;0.6;;;;;;;17.77;48.57129;928.5039;;;;
2020/04/30 13:05:38;;;;;;;3.3;0.8;;;;;;;17.82;50.22461;928.4381;;;;
2020/04/30 13:08:03;;;;;;;1.8;0.7;;;;;;;17.93;49.08789;928.4158;;;;
2020/04/30 13:10:29;;;;;;;4.4;0.6;;;;;;;17.96;49.92676;928.3973;;;;
2020/04/30 13:12:54;;;;;;;1.6;0.6;;;;;;;18.03;48.62109;928.3145;;;;
2020/04/30 13:15:19;;;;;;;2.1;0.7;;;;;;;18.12;49.3418;928.2467;;;;
2020/04/30 13:17:44;;;;;;;2.6;0.5;;;;;;;18.05;50.59863;928.342;;;;
2020/04/30 13:20:09;;;;;;;3.7;0.6;;;;;;;18.04;50.87695;928.2933;;;;
2020/04/30 13:22:34;;;;;;;3.9;0.7;;;;;;;18.08;49.19727;928.1998;;;;
2020/04/30 13:25:00;;;;;;;3.6;0.6;;;;;;;18.15;49.90137;928.0684;;;;
2020/04/30 13:27:25;;;;;;;1.6;0.6;;;;;;;18.22;48.17773;928.1549;;;;
2020/04/30 13:29:51;;;;;;;2.6;0.5;;;;;;;18.36;48.94922;928.0457;;;;
2020/04/30 13:32:16;;;;;;;2.8;0.8;;;;;;;18.51;48.37305;928.0068;;;;
2020/04/30 13:34:42;;;;;;;2.6;0.7;;;;;;;18.56;47.9834;927.975;;;;
2020/04/30 13:37:08;;;;;;;3.2;1;;;;;;;18.57;47.80957;927.9078;;;;
2020/04/30 13:39:33;;;;;;;2;0.6;;;;;;;18.57;46.98438;927.9933;;;;
2020/04/30 13:41:59;;;;;;;0.9;0.4;;;;;;;18.51;48.80273;928.0356;;;;
2020/04/30 13:44:24;;;;;;;1.2;0.4;;;;;;;18.68;48.01953;927.9154;;;;
2020/04/30 13:46:50;;;;;;;2.1;0.5;;;;;;;18.66;46.63281;927.7478;;;;
2020/04/30 13:49:15;;;;;;;2.2;0.6;;;;;;;18.73;46.58203;927.7611;;;;
2020/04/30 13:51:41;;;;;;;1.5;0.5;;;;;;;18.91;46.69434;927.7607;;;;
2020/04/30 13:54:07;;;;;;;1.7;0.6;;;;;;;18.97;45.66406;927.8422;;;;
2020/04/30 13:57:08;;;;;;;1.3;0.5;;;;;;;18.7;46.56836;927.8081;;;;
2020/04/30 13:58:58;;;;;;;2.8;0.7;;;;;;;18.59;48.55566;927.8569;;;;
2020/04/30 14:01:23;;;;;;;2.1;0.5;;;;;;;18.5;47.66211;927.8725;;;;
2020/04/30 14:03:48;;;;;;;1.8;0.4;;;;;;;18.25;47.97266;927.8225;;;;
2020/04/30 14:06:13;;;;;;;2.2;0.6;;;;;;;18.13;49.17871;927.8945;;;;
2020/04/30 14:08:39;;;;;;;0.8;0.4;;;;;;;18.06;48.90527;927.8783;;;;
2020/04/30 14:11:04;;;;;;;0.5;0.3;;;;;;;17.86;49.95117;927.8554;;;;
2020/04/30 14:13:29;;;;;;;2.8;0.6;;;;;;;17.75;48.52148;927.7905;;;;
2020/04/30 14:15:54;;;;;;;1.4;0.5;;;;;;;17.64;48.56738;927.798;;;;
2020/04/30 14:18:19;;;;;;;0.9;0.5;;;;;;;17.6;49.6543;927.6613;;;;
2020/04/30 14:20:44;;;;;;;2;0.6;;;;;;;17.62;51.55957;927.7333;;;;
2020/04/30 14:23:09;;;;;;;1.5;0.6;;;;;;;17.45;50.06738;927.7558;;;;
2020/04/30 14:25:36;;;;;;;4.3;0.9;;;;;;;17.51;49.96777;927.7461;;;;
2020/04/30 14:28:01;;;;;;;1;0.7;;;;;;;17.43;50.71387;927.7324;;;;
2020/04/30 14:30:28;;;;;;;3.7;0.7;;;;;;;17.33;51.28223;927.6671;;;;
2020/04/30 14:32:53;;;;;;;1.9;0.7;;;;;;;17.21;50.69922;927.7;;;;
2020/04/30 14:35:20;;;;;;;2.7;0.7;;;;;;;17.17;51.18164;927.5739;;;;
2020/04/30 14:37:45;;;;;;;2.7;0.6;;;;;;;17.11;50.73438;927.6677;;;;
2020/04/30 14:40:12;;;;;;;2.3;0.7;;;;;;;16.92;52.47461;927.675;;;;
2020/04/30 14:42:36;;;;;;;2.8;0.9;;;;;;;16.92;52.70508;927.6833;;;;
2020/04/30 14:47:34;;;;;;;3;1.1;;;;;;;16.73;53.05273;927.783;;;;
2020/04/30 14:49:59;;;;;;;5.1;0.8;;;;;;;16.66;53.0332;927.7189;;;;
2020/04/30 14:52:26;;;;;;;4.2;0.7;;;;;;;16.59;52.9209;927.793;;;;
2020/04/30 14:57:23;;;;;;;3.5;0.8;;;;;;;16.51;54.7627;927.8631;;;;
2020/04/30 15:06:58;;;;;;;1.2;0.5;;;;;;;16.17;55.12402;927.8734;;;;
2020/04/30 15:14:12;;;;;;;0.5;0.4;;;;;;;15.69;58.12695;927.9277;;;;
2020/04/30 15:16:39;;;;;;;0.9;0.5;;;;;;;15.22;58.74512;927.8964;;;;
2020/04/30 15:19:13;;;;;;;2.3;0.4;;;;;;;15.16;60.18066;927.8207;;;;
2020/04/30 15:24:33;;;;;;;0.8;0.5;;;;;;;15.16;59.79785;927.8962;;;;
2020/04/30 15:26:17;;;;;;;0.7;0.4;;;;;;;15.22;59.81836;927.951;;;;
2020/04/30 15:28:48;;;;;;;4.3;1.6;;;;;;;15.31;59.24219;927.9785;;;;
2020/04/30 15:33:32;;;;;;;1.3;0.7;;;;;;;15.28;59.35352;928.0225;;;;
2020/04/30 15:36:04;;;;;;;1.2;0.6;;;;;;;15.27;59.44531;928.0092;;;;
2020/04/30 15:41:00;;;;;;;2;0.6;;;;;;;14.57;62.27637;928.0262;;;;
2020/04/30 15:43:29;;;;;;;1.5;0.5;;;;;;;14.76;62.71875;928.0862;;;;
2020/04/30 15:45:35;;;;;;;2;0.6;;;;;;;14.75;64.67676;928.1506;;;;
2020/04/30 15:48:24;;;;;;;1.5;0.6;;;;;;;14.67;64.96582;928.2325;;;;
2020/04/30 15:50:40;;;;;;;1.1;0.5;;;;;;;14.54;64.21875;928.2545;;;;
2020/04/30 15:52:53;;;;;;;1.1;0.5;;;;;;;14.48;66.06543;928.235;;;;
2020/04/30 15:55:34;;;;;;;1.4;0.7;;;;;;;14.41;66.14844;928.3014;;;;
2020/04/30 15:58:00;;;;;;;1.6;0.6;;;;;;;14.18;67.06641;928.3381;;;;
2020/04/30 16:00:27;;;;;;;1.2;0.7;;;;;;;14.12;67.89941;928.4065;;;;
2020/04/30 16:02:31;;;;;;;1.8;0.5;;;;;;;14.04;67.83008;928.4313;;;;
2020/04/30 16:05:02;;;;;;;3.5;0.8;;;;;;;13.95;69.45996;928.4344;;;;
2020/04/30 16:07:39;;;;;;;2.3;0.6;;;;;;;13.8;69.86328;928.4056;;;;
2020/04/30 16:12:17;;;;;;;6.5;0.6;;;;;;;13.58;70.95313;928.5639;;;;
2020/04/30 16:22:09;;;;;;;4.1;0.9;;;;;;;12.9;75.44629;928.6865;;;;
2020/04/30 16:26:50;;;;;;;1.6;0.8;;;;;;;12.79;76.05957;928.7966;;;;
2020/04/30 16:29:45;;;;;;;1.9;0.8;;;;;;;12.55;76.81934;928.8084;;;;
2020/04/30 16:31:53;;;;;;;5.6;1.1;;;;;;;12.58;77.44531;928.8151;;;;
2020/04/30 16:38:57;;;;;;;4.4;1.6;;;;;;;12.45;78.98242;928.8624;;;;
2020/04/30 16:41:35;;;;;;;2.1;1;;;;;;;12.37;79.01172;928.887;;;;
2020/04/30 16:48:34;;;;;;;2.6;1.4;;;;;;;12.19;79.75879;928.9864;;;;
2020/04/30 16:53:31;;;;;;;4.2;1.4;;;;;;;12.05;80.54492;929.0144;;;;
2020/04/30 16:55:43;;;;;;;3;1.2;;;;;;;12.08;80.90918;928.9949;;;;
2020/04/30 16:58:08;;;;;;;2.2;1.2;;;;;;;12.13;80.2627;929.0294;;;;
2020/04/30 17:03:19;;;;;;;2;1.1;;;;;;;12.14;80.19727;929.1656;;;;
2020/04/30 17:05:31;;;;;;;4.4;1.5;;;;;;;12.14;80.68945;929.2327;;;;
2020/04/30 17:13:00;;;;;;;3.2;1.6;;;;;;;12.04;80.11035;929.2418;;;;
2020/04/30 17:23:19;;;;;;;1.6;1;;;;;;;11.68;81.07324;929.4926;;;;
2020/04/30 17:25:04;;;;;;;2.1;1;;;;;;;11.52;81.66113;929.5775;;;;
2020/04/30 17:27:20;;;;;;;5.8;1.1;;;;;;;11.44;82.51563;929.6323;;;;
2020/04/30 17:39:27;;;;;;;1.4;1;;;;;;;11.47;82.01855;930.045;;;;
2020/04/30 17:43:02;;;;;;;3.9;1.1;;;;;;;11.61;81.95117;930.0958;;;;
2020/04/30 17:46:41;;;;;;;3.5;1.2;;;;;;;11.63;81.4873;930.1692;;;;
2020/04/30 17:49:10;;;;;;;2.9;2.1;;;;;;;11.42;82.36328;930.1769;;;;
2020/04/30 17:51:42;;;;;;;4.2;2.3;;;;;;;11.42;83.04004;930.2079;;;;
2020/04/30 17:53:57;;;;;;;3.3;2.3;;;;;;;11.43;83.33789;930.1697;;;;
2020/04/30 17:56:35;;;;;;;2;1.1;;;;;;;11.16;84.85156;930.3214;;;;
2020/04/30 17:59:23;;;;;;;2.9;1.3;;;;;;;11.12;85.53027;930.3471;;;;
2020/04/30 18:04:16;;;;;;;1.7;0.9;;;;;;;11.08;82.92676;930.3967;;;;
2020/04/30 18:06:26;;;;;;;7;3.5;;;;;;;11.25;83.14258;930.4295;;;;
2020/04/30 18:08:29;;;;;;;2.6;1.5;;;;;;;11.17;84.04199;930.4615;;;;
2020/04/30 18:11:11;;;;;;;221.4;96.1;;;;;;;11.22;84.57813;930.4537;;;;
2020/04/30 18:15:43;;;;;;;6.9;2.6;;;;;;;11.3;84.70898;930.4811;;;;
2020/04/30 18:21:51;;;;;;;3.1;1.6;;;;;;;11.42;84.20703;930.4567;;;;
2020/04/30 18:22:57;;;;;;;13.4;6.2;;;;;;;11.41;84.52344;930.5269;;;;
2020/04/30 18:25:34;;;;;;;8.3;4.6;;;;;;;11.47;83.84961;930.5265;;;;
2020/04/30 18:30:18;;;;;;;4.7;2.4;;;;;;;11.48;83.31348;930.5767;;;;
2020/04/30 18:34:22;;;;;;;4.2;2.3;;;;;;;11.45;83.80957;930.5815;;;;
2020/04/30 18:35:12;;;;;;;4.8;2.8;;;;;;;11.4;83.84668;930.6135;;;;
2020/04/30 18:37:31;;;;;;;4.9;3.4;;;;;;;11.36;84.19336;930.5811;;;;
2020/04/30 18:39:56;;;;;;;4.5;2.8;;;;;;;11.27;84.00586;930.5936;;;;
2020/04/30 18:42:37;;;;;;;4.7;3;;;;;;;11.01;84.9834;930.7394;;;;
2020/04/30 18:45:03;;;;;;;5.6;3.7;;;;;;;10.89;86.12402;930.6857;;;;
2020/04/30 18:47:18;;;;;;;6.2;3.2;;;;;;;10.81;86.33789;930.7999;;;;
2020/04/30 18:50:27;;;;;;;4.6;3.2;;;;;;;10.64;87.27441;930.832;;;;
2020/04/30 18:51:57;;;;;;;4.8;2.8;;;;;;;10.66;87.60938;930.8734;;;;
2020/04/30 18:55:55;;;;;;;4.2;2.9;;;;;;;10.76;87.66406;930.9344;;;;
2020/04/30 18:57:11;;;;;;;4.6;2.8;;;;;;;10.79;87.84082;931.0154;;;;
2020/04/30 18:59:21;;;;;;;7.3;5.6;;;;;;;10.92;87.08984;931.0344;;;;
2020/04/30 19:09:02;;;;;;;7.7;3.5;;;;;;;10.82;85.38086;931.1884;;;;
2020/04/30 19:13:07;;;;;;;9.1;4.8;;;;;;;10.74;84.78223;931.1439;;;;
2020/04/30 19:18:46;;;;;;;1.4;0.9;;;;;;;10.33;85.5791;931.133;;;;
2020/04/30 19:21:11;;;;;;;6.6;5.3;;;;;;;10.52;85.02344;931.0717;;;;
2020/04/30 19:28:26;;;;;;;4.1;2.3;;;;;;;;;;;;;
2020/04/30 19:31:29;;;;;;;9.5;5.2;;;;;;;;;;;;;
2020/04/30 19:38:49;;;;;;;4.6;2.3;;;;;;;;;;;;;
2020/04/30 19:42:56;;;;;;;3.4;1.6;;;;;;;;;;;;;
2020/04/30 19:45:24;;;;;;;5.3;2.5;;;;;;;;;;;;;
2020/04/30 19:47:43;;;;;;;4.3;2.4;;;;;;;;;;;;;
2020/04/30 19:50:16;;;;;;;2;0.7;;;;;;;;;;;;;
2020/04/30 19:58:12;;;;;;;3.7;1.9;;;;;;;;;;;;;
2020/04/30 20:04:35;;;;;;;11.8;10.6;;;;;;;;;;;;;
2020/04/30 20:07:00;;;;;;;4.7;3.2;;;;;;;;;;;;;
2020/04/30 20:09:25;;;;;;;9.2;8.4;;;;;;;;;;;;;